createdAt,value
2017-09-02T00:00:34.172Z,0.00
2017-09-02T00:01:34.239Z,0.00
2017-09-02T00:02:34.181Z,0.00
2017-09-02T00:03:34.247Z,0.00
2017-09-02T00:04:34.203Z,0.00
2017-09-02T00:05:34.240Z,0.00
2017-09-02T00:06:34.174Z,0.00
2017-09-02T00:07:34.225Z,0.00
2017-09-02T00:08:34.213Z,0.00
2017-09-02T00:09:34.208Z,0.00
2017-09-02T00:10:34.191Z,0.00
2017-09-02T00:11:34.210Z,0.00
2017-09-02T00:12:34.180Z,0.00
2017-09-02T00:13:34.239Z,0.00
2017-09-02T00:14:34.190Z,0.00
2017-09-02T00:15:34.184Z,0.00
2017-09-02T00:16:34.190Z,0.00
2017-09-02T00:17:34.230Z,0.00
2017-09-02T00:18:34.245Z,0.00
2017-09-02T00:19:34.253Z,0.00
2017-09-02T00:20:34.197Z,0.00
2017-09-02T00:21:34.185Z,0.00
2017-09-02T00:22:34.252Z,0.00
2017-09-02T00:23:34.227Z,0.00
2017-09-02T00:24:34.190Z,0.00
2017-09-02T00:25:34.199Z,0.00
2017-09-02T00:26:34.194Z,0.00
2017-09-02T00:27:34.192Z,0.00
2017-09-02T00:28:34.164Z,0.00
2017-09-02T00:29:34.194Z,0.00
2017-09-02T00:30:34.166Z,0.00
2017-09-02T00:31:34.231Z,0.00
2017-09-02T00:32:34.237Z,0.00
2017-09-02T00:33:34.267Z,0.00
2017-09-02T00:34:34.236Z,0.00
2017-09-02T00:35:34.272Z,0.00
2017-09-02T00:36:34.256Z,0.00
2017-09-02T00:37:34.168Z,0.00
2017-09-02T00:38:34.206Z,0.00
2017-09-02T00:39:34.200Z,0.00
2017-09-02T00:40:34.152Z,0.00
2017-09-02T00:41:34.160Z,0.00
2017-09-02T00:42:34.153Z,0.00
2017-09-02T00:43:34.186Z,0.00
2017-09-02T00:44:34.164Z,0.00
2017-09-02T00:45:34.071Z,0.00
2017-09-02T00:46:34.165Z,0.00
2017-09-02T00:47:34.166Z,0.00
2017-09-02T00:48:34.159Z,0.00
2017-09-02T00:49:34.175Z,0.00
2017-09-02T00:50:34.173Z,0.00
2017-09-02T00:51:34.239Z,0.00
2017-09-02T00:52:34.199Z,0.00
2017-09-02T00:53:34.169Z,0.00
2017-09-02T00:54:34.173Z,0.00
2017-09-02T00:55:34.201Z,0.00
2017-09-02T00:56:34.176Z,0.00
2017-09-02T00:57:34.204Z,0.00
2017-09-02T00:58:34.235Z,0.00
2017-09-02T00:59:34.203Z,0.00
2017-09-02T01:00:34.221Z,0.00
2017-09-02T01:01:34.257Z,0.00
2017-09-02T01:02:34.248Z,0.00
2017-09-02T01:03:34.186Z,0.00
2017-09-02T01:04:34.253Z,0.00
2017-09-02T01:05:34.191Z,0.00
2017-09-02T01:06:34.239Z,0.00
2017-09-02T01:07:34.284Z,0.00
2017-09-02T01:08:34.218Z,0.00
2017-09-02T01:09:34.216Z,0.00
2017-09-02T01:10:34.212Z,0.00
2017-09-02T01:11:34.216Z,0.00
2017-09-02T01:12:34.189Z,0.00
2017-09-02T01:13:34.188Z,0.00
2017-09-02T01:14:34.214Z,0.00
2017-09-02T01:15:34.223Z,0.00
2017-09-02T01:16:34.185Z,0.00
2017-09-02T01:17:34.251Z,0.00
2017-09-02T01:18:34.190Z,0.00
2017-09-02T01:19:34.252Z,0.00
2017-09-02T01:20:34.247Z,0.00
2017-09-02T01:21:34.195Z,0.00
2017-09-02T01:22:34.202Z,0.00
2017-09-02T01:23:34.196Z,0.00
2017-09-02T01:24:34.226Z,0.00
2017-09-02T01:25:34.267Z,0.00
2017-09-02T01:26:34.286Z,0.00
2017-09-02T01:27:34.261Z,0.00
2017-09-02T01:28:34.206Z,0.00
2017-09-02T01:29:34.235Z,0.00
2017-09-02T01:30:34.237Z,0.00
2017-09-02T01:31:34.239Z,0.00
2017-09-02T01:32:34.299Z,0.00
2017-09-02T01:33:34.275Z,0.00
2017-09-02T01:34:34.240Z,0.00
2017-09-02T01:35:34.280Z,0.00
2017-09-02T01:36:34.277Z,0.00
2017-09-02T01:37:34.334Z,0.00
2017-09-02T01:38:34.215Z,0.00
2017-09-02T01:39:34.301Z,0.00
2017-09-02T01:40:34.237Z,0.00
2017-09-02T01:41:34.211Z,0.00
2017-09-02T01:42:34.243Z,0.00
2017-09-02T01:43:34.245Z,0.00
2017-09-02T01:44:34.278Z,0.00
2017-09-02T01:45:34.208Z,0.00
2017-09-02T01:46:34.250Z,0.00
2017-09-02T01:47:34.301Z,0.00
2017-09-02T01:48:34.267Z,0.00
2017-09-02T01:49:34.210Z,0.00
2017-09-02T01:50:34.278Z,0.00
2017-09-02T01:51:34.235Z,0.00
2017-09-02T01:52:34.209Z,0.00
2017-09-02T01:53:34.231Z,0.00
2017-09-02T01:54:34.235Z,0.00
2017-09-02T01:55:34.186Z,0.00
2017-09-02T01:56:34.239Z,0.00
2017-09-02T01:57:34.240Z,0.00
2017-09-02T01:58:34.237Z,0.00
2017-09-02T01:59:34.217Z,0.00
2017-09-02T02:00:34.310Z,0.00
2017-09-02T02:02:34.228Z,0.00
2017-09-02T02:03:34.246Z,0.00
2017-09-02T02:04:34.316Z,0.00
2017-09-02T02:05:34.250Z,0.00
2017-09-02T02:06:34.306Z,0.00
2017-09-02T02:07:34.316Z,0.00
2017-09-02T02:08:34.317Z,0.00
2017-09-02T02:09:34.276Z,0.00
2017-09-02T02:10:34.256Z,0.00
2017-09-02T02:11:34.250Z,0.00
2017-09-02T02:12:34.323Z,0.00
2017-09-02T02:13:34.260Z,0.00
2017-09-02T02:14:34.253Z,0.00
2017-09-02T02:15:34.263Z,0.00
2017-09-02T02:16:34.227Z,0.00
2017-09-02T02:17:34.228Z,0.00
2017-09-02T02:18:34.267Z,0.00
2017-09-02T02:19:34.299Z,0.00
2017-09-02T02:20:34.303Z,0.00
2017-09-02T02:21:34.287Z,0.00
2017-09-02T02:22:34.266Z,0.00
2017-09-02T02:23:34.326Z,0.00
2017-09-02T02:24:34.295Z,0.00
2017-09-02T02:25:34.329Z,0.00
2017-09-02T02:26:34.302Z,0.00
2017-09-02T02:27:34.325Z,0.00
2017-09-02T02:28:34.233Z,0.00
2017-09-02T02:29:34.269Z,0.00
2017-09-02T02:30:34.237Z,0.00
2017-09-02T02:31:34.226Z,0.00
2017-09-02T02:32:34.208Z,0.00
2017-09-02T02:33:34.240Z,0.00
2017-09-02T02:34:34.235Z,0.00
2017-09-02T02:35:34.176Z,0.00
2017-09-02T02:36:34.241Z,0.00
2017-09-02T02:37:34.244Z,0.00
2017-09-02T02:38:34.246Z,0.00
2017-09-02T02:39:34.248Z,0.00
2017-09-02T02:40:34.267Z,0.00
2017-09-02T02:41:34.268Z,0.00
2017-09-02T02:42:34.239Z,0.00
2017-09-02T02:43:34.264Z,0.00
2017-09-02T02:44:34.251Z,0.00
2017-09-02T02:45:34.269Z,0.00
2017-09-02T02:46:34.240Z,0.00
2017-09-02T02:47:34.313Z,0.00
2017-09-02T02:48:34.269Z,0.00
2017-09-02T02:49:34.271Z,0.00
2017-09-02T02:50:34.271Z,0.00
2017-09-02T02:51:34.273Z,0.00
2017-09-02T02:52:34.228Z,0.00
2017-09-02T02:53:34.272Z,0.00
2017-09-02T02:54:34.271Z,0.00
2017-09-02T02:55:34.256Z,0.00
2017-09-02T02:56:34.282Z,0.00
2017-09-02T02:57:34.260Z,0.00
2017-09-02T02:58:34.225Z,0.00
2017-09-02T02:59:34.248Z,0.00
2017-09-02T03:00:34.307Z,0.00
2017-09-02T03:01:34.315Z,0.00
2017-09-02T03:02:34.309Z,0.00
2017-09-02T03:03:34.279Z,0.00
2017-09-02T03:04:34.309Z,0.00
2017-09-02T03:05:34.254Z,0.00
2017-09-02T03:06:34.280Z,0.00
2017-09-02T03:07:34.253Z,0.00
2017-09-02T03:08:34.254Z,0.00
2017-09-02T03:09:34.282Z,0.00
2017-09-02T03:10:34.189Z,0.00
2017-09-02T03:11:34.195Z,0.00
2017-09-02T03:12:34.252Z,0.00
2017-09-02T03:13:34.169Z,0.00
2017-09-02T03:14:34.265Z,0.00
2017-09-02T03:15:34.236Z,0.00
2017-09-02T03:16:34.236Z,0.00
2017-09-02T03:17:34.233Z,0.00
2017-09-02T03:18:34.189Z,0.00
2017-09-02T03:19:34.257Z,0.00
2017-09-02T03:20:34.357Z,0.00
2017-09-02T03:21:34.270Z,0.00
2017-09-02T03:22:34.270Z,0.00
2017-09-02T03:23:34.361Z,0.00
2017-09-02T03:24:34.396Z,0.00
2017-09-02T03:25:34.308Z,0.00
2017-09-02T03:26:34.335Z,0.00
2017-09-02T03:27:34.300Z,0.00
2017-09-02T03:28:34.270Z,0.00
2017-09-02T03:29:34.368Z,0.00
2017-09-02T03:30:34.328Z,0.00
2017-09-02T03:31:34.273Z,0.00
2017-09-02T03:32:34.273Z,0.00
2017-09-02T03:33:34.274Z,0.00
2017-09-02T03:34:34.279Z,0.00
2017-09-02T03:35:34.366Z,0.00
2017-09-02T03:36:34.347Z,0.00
2017-09-02T03:37:34.339Z,0.00
2017-09-02T03:38:34.342Z,0.00
2017-09-02T03:39:34.333Z,0.00
2017-09-02T03:40:34.280Z,0.00
2017-09-02T03:41:34.348Z,0.00
2017-09-02T03:42:34.336Z,0.00
2017-09-02T03:43:34.336Z,0.00
2017-09-02T03:44:34.372Z,0.00
2017-09-02T03:45:34.289Z,0.00
2017-09-02T03:46:34.338Z,0.00
2017-09-02T03:47:34.286Z,0.00
2017-09-02T03:48:34.313Z,0.00
2017-09-02T03:49:34.355Z,0.00
2017-09-02T03:50:34.305Z,0.00
2017-09-02T03:51:34.281Z,0.00
2017-09-02T03:52:34.343Z,0.00
2017-09-02T03:53:34.341Z,0.00
2017-09-02T03:54:34.312Z,0.00
2017-09-02T03:55:34.344Z,0.00
2017-09-02T03:56:34.342Z,0.00
2017-09-02T03:57:34.347Z,0.00
2017-09-02T03:58:34.344Z,0.00
2017-09-02T03:59:34.311Z,0.00
2017-09-02T04:00:34.363Z,0.00
2017-09-02T04:01:34.380Z,0.00
2017-09-02T04:02:34.290Z,0.00
2017-09-02T04:03:34.315Z,0.00
2017-09-02T04:04:34.324Z,0.00
2017-09-02T04:05:34.349Z,0.00
2017-09-02T04:06:34.319Z,0.00
2017-09-02T04:07:34.324Z,0.00
2017-09-02T04:08:34.441Z,0.00
2017-09-02T04:09:34.357Z,0.00
2017-09-02T04:10:34.364Z,0.00
2017-09-02T04:11:34.328Z,0.00
2017-09-02T04:12:34.333Z,0.00
2017-09-02T04:13:34.326Z,0.00
2017-09-02T04:14:34.300Z,0.00
2017-09-02T04:15:34.364Z,0.00
2017-09-02T04:16:34.298Z,0.00
2017-09-02T04:17:34.333Z,0.00
2017-09-02T04:18:34.388Z,0.00
2017-09-02T04:19:34.375Z,0.00
2017-09-02T04:20:34.358Z,0.00
2017-09-02T04:21:34.362Z,0.00
2017-09-02T04:22:34.324Z,0.00
2017-09-02T04:23:34.297Z,0.00
2017-09-02T04:24:34.329Z,0.00
2017-09-02T04:25:34.329Z,0.00
2017-09-02T04:26:34.367Z,0.00
2017-09-02T04:27:34.360Z,0.00
2017-09-02T04:28:34.364Z,0.00
2017-09-02T04:29:34.302Z,0.00
2017-09-02T04:30:34.366Z,0.00
2017-09-02T04:31:34.360Z,0.00
2017-09-02T04:32:34.305Z,0.00
2017-09-02T04:33:34.304Z,0.00
2017-09-02T04:34:34.328Z,0.00
2017-09-02T04:35:34.335Z,0.00
2017-09-02T04:36:34.365Z,0.00
2017-09-02T04:37:34.339Z,0.00
2017-09-02T04:38:34.309Z,0.00
2017-09-02T04:39:34.308Z,0.00
2017-09-02T04:40:34.317Z,0.00
2017-09-02T04:41:34.335Z,0.00
2017-09-02T04:42:34.311Z,0.00
2017-09-02T04:43:34.341Z,0.00
2017-09-02T04:44:34.287Z,0.00
2017-09-02T04:45:34.331Z,0.00
2017-09-02T04:46:34.338Z,0.00
2017-09-02T04:47:34.394Z,0.00
2017-09-02T04:48:34.342Z,0.00
2017-09-02T04:49:34.304Z,0.00
2017-09-02T04:50:34.388Z,0.00
2017-09-02T04:51:34.343Z,0.00
2017-09-02T04:52:34.343Z,0.00
2017-09-02T04:53:34.344Z,0.00
2017-09-02T04:54:34.319Z,0.00
2017-09-02T04:55:34.346Z,0.00
2017-09-02T04:56:34.347Z,0.00
2017-09-02T04:57:34.321Z,0.00
2017-09-02T04:58:34.321Z,0.00
2017-09-02T04:59:34.384Z,0.00
2017-09-02T05:00:34.427Z,0.00
2017-09-02T05:01:34.335Z,0.00
2017-09-02T05:02:34.417Z,0.00
2017-09-02T05:03:34.334Z,0.00
2017-09-02T05:04:34.384Z,0.00
2017-09-02T05:05:34.428Z,0.00
2017-09-02T05:06:34.359Z,0.00
2017-09-02T05:07:34.420Z,0.00
2017-09-02T05:08:34.405Z,0.00
2017-09-02T05:09:34.331Z,0.00
2017-09-02T05:10:34.364Z,0.00
2017-09-02T05:11:34.419Z,0.00
2017-09-02T05:12:34.401Z,0.00
2017-09-02T05:13:34.386Z,0.00
2017-09-02T05:14:34.389Z,0.00
2017-09-02T05:15:34.360Z,0.00
2017-09-02T05:16:34.410Z,1.00
2017-09-02T05:17:34.372Z,1.00
2017-09-02T05:18:34.368Z,1.00
2017-09-02T05:19:34.342Z,1.00
2017-09-02T05:20:34.356Z,1.00
2017-09-02T05:21:34.367Z,1.00
2017-09-02T05:22:34.331Z,1.00
2017-09-02T05:23:34.397Z,2.00
2017-09-02T05:24:34.361Z,2.00
2017-09-02T05:25:34.334Z,2.00
2017-09-02T05:26:34.396Z,2.00
2017-09-02T05:27:34.402Z,2.00
2017-09-02T05:28:34.363Z,2.00
2017-09-02T05:29:34.363Z,2.00
2017-09-02T05:30:34.342Z,2.00
2017-09-02T05:31:34.374Z,2.00
2017-09-02T05:32:34.379Z,2.00
2017-09-02T05:33:34.400Z,3.00
2017-09-02T05:34:34.383Z,3.00
2017-09-02T05:35:34.349Z,3.00
2017-09-02T05:36:34.356Z,3.00
2017-09-02T05:37:34.387Z,3.00
2017-09-02T05:38:34.415Z,3.00
2017-09-02T05:39:34.348Z,3.00
2017-09-02T05:40:34.438Z,3.00
2017-09-02T05:41:34.441Z,3.00
2017-09-02T05:42:34.381Z,3.00
2017-09-02T05:43:34.439Z,3.00
2017-09-02T05:44:34.379Z,3.00
2017-09-02T05:45:34.439Z,3.00
2017-09-02T05:46:34.384Z,3.00
2017-09-02T05:47:34.442Z,3.00
2017-09-02T05:48:34.381Z,3.00
2017-09-02T05:49:34.353Z,3.00
2017-09-02T05:50:34.358Z,3.00
2017-09-02T05:51:34.378Z,3.00
2017-09-02T05:52:34.352Z,3.00
2017-09-02T05:53:34.356Z,3.00
2017-09-02T05:54:34.335Z,3.00
2017-09-02T05:55:34.360Z,3.00
2017-09-02T05:56:34.372Z,3.00
2017-09-02T05:57:34.331Z,3.00
2017-09-02T05:58:34.335Z,3.00
2017-09-02T05:59:34.380Z,3.00
2017-09-02T06:00:34.339Z,3.00
2017-09-02T06:01:34.365Z,2.00
2017-09-02T06:02:34.388Z,2.00
2017-09-02T06:03:34.437Z,2.00
2017-09-02T06:04:34.401Z,2.00
2017-09-02T06:05:34.457Z,2.00
2017-09-02T06:06:34.456Z,2.00
2017-09-02T06:07:34.386Z,2.00
2017-09-02T06:08:34.437Z,3.00
2017-09-02T06:09:34.387Z,3.00
2017-09-02T06:10:34.396Z,3.00
2017-09-02T06:11:34.391Z,3.00
2017-09-02T06:12:34.340Z,3.00
2017-09-02T06:13:34.387Z,3.00
2017-09-02T06:14:34.436Z,3.00
2017-09-02T06:15:34.394Z,3.00
2017-09-02T06:16:34.408Z,3.00
2017-09-02T06:17:34.391Z,3.00
2017-09-02T06:18:34.399Z,3.00
2017-09-02T06:19:34.392Z,3.00
2017-09-02T06:20:34.394Z,4.00
2017-09-02T06:21:34.433Z,4.00
2017-09-02T06:22:34.396Z,4.00
2017-09-02T06:23:34.431Z,4.00
2017-09-02T06:24:34.397Z,4.00
2017-09-02T06:25:34.427Z,4.00
2017-09-02T06:26:34.439Z,4.00
2017-09-02T06:27:34.428Z,4.00
2017-09-02T06:28:34.370Z,4.00
2017-09-02T06:29:34.432Z,4.00
2017-09-02T06:30:34.435Z,5.00
2017-09-02T06:31:34.417Z,5.00
2017-09-02T06:32:34.471Z,5.00
2017-09-02T06:33:34.379Z,6.00
2017-09-02T06:34:34.387Z,6.00
2017-09-02T06:35:34.405Z,6.00
2017-09-02T06:36:34.476Z,6.00
2017-09-02T06:37:34.402Z,7.00
2017-09-02T06:38:34.407Z,7.00
2017-09-02T06:39:34.477Z,7.00
2017-09-02T06:40:34.385Z,7.00
2017-09-02T06:41:34.456Z,7.00
2017-09-02T06:42:34.425Z,7.00
2017-09-02T06:43:34.482Z,7.00
2017-09-02T06:44:34.425Z,6.00
2017-09-02T06:45:34.491Z,6.00
2017-09-02T06:46:34.421Z,6.00
2017-09-02T06:47:34.420Z,7.00
2017-09-02T06:48:34.426Z,7.00
2017-09-02T06:49:34.430Z,7.00
2017-09-02T06:50:34.419Z,7.00
2017-09-02T06:51:34.449Z,8.00
2017-09-02T06:52:34.451Z,8.00
2017-09-02T06:53:34.385Z,9.00
2017-09-02T06:54:34.455Z,9.00
2017-09-02T06:55:34.387Z,10.00
2017-09-02T06:56:34.389Z,10.00
2017-09-02T06:57:34.389Z,10.00
2017-09-02T06:58:34.454Z,10.00
2017-09-02T06:59:34.454Z,9.00
2017-09-02T07:00:34.424Z,9.00
2017-09-02T07:01:34.396Z,9.00
2017-09-02T07:02:34.422Z,9.00
2017-09-02T07:03:34.417Z,9.00
2017-09-02T07:04:34.428Z,9.00
2017-09-02T07:05:34.451Z,9.00
2017-09-02T07:06:34.394Z,10.00
2017-09-02T07:07:34.427Z,10.00
2017-09-02T07:08:34.398Z,10.00
2017-09-02T07:09:34.424Z,10.00
2017-09-02T07:10:34.395Z,11.00
2017-09-02T07:11:34.416Z,11.00
2017-09-02T07:12:34.471Z,12.00
2017-09-02T07:13:34.416Z,13.00
2017-09-02T07:14:34.441Z,14.00
2017-09-02T07:15:34.445Z,14.00
2017-09-02T07:16:34.412Z,15.00
2017-09-02T07:17:34.450Z,15.00
2017-09-02T07:18:34.512Z,15.00
2017-09-02T07:19:34.445Z,15.00
2017-09-02T07:20:34.438Z,15.00
2017-09-02T07:21:34.478Z,16.00
2017-09-02T07:22:34.463Z,17.00
2017-09-02T07:23:34.419Z,18.00
2017-09-02T07:24:34.451Z,19.00
2017-09-02T07:25:34.499Z,19.00
2017-09-02T07:26:34.469Z,19.00
2017-09-02T07:27:34.425Z,19.00
2017-09-02T07:28:34.515Z,19.00
2017-09-02T07:29:34.422Z,19.00
2017-09-02T07:30:34.442Z,19.00
2017-09-02T07:31:34.512Z,18.00
2017-09-02T07:32:34.421Z,18.00
2017-09-02T07:33:34.512Z,18.00
2017-09-02T07:34:34.444Z,18.00
2017-09-02T07:35:34.421Z,18.00
2017-09-02T07:36:34.507Z,18.00
2017-09-02T07:37:34.439Z,17.00
2017-09-02T07:38:34.509Z,18.00
2017-09-02T07:39:34.484Z,18.00
2017-09-02T07:40:34.475Z,19.00
2017-09-02T07:41:34.495Z,20.00
2017-09-02T07:42:34.455Z,20.00
2017-09-02T07:43:34.458Z,22.00
2017-09-02T07:44:34.433Z,22.00
2017-09-02T07:45:34.513Z,22.00
2017-09-02T07:46:34.495Z,22.00
2017-09-02T07:47:34.512Z,21.00
2017-09-02T07:48:34.451Z,21.00
2017-09-02T07:49:34.522Z,22.00
2017-09-02T07:50:34.453Z,22.00
2017-09-02T07:51:34.424Z,23.00
2017-09-02T07:52:34.481Z,23.00
2017-09-02T07:53:34.427Z,24.00
2017-09-02T07:54:34.436Z,26.00
2017-09-02T07:55:34.434Z,26.00
2017-09-02T07:56:34.429Z,36.00
2017-09-02T07:57:34.519Z,43.00
2017-09-02T07:58:34.430Z,57.00
2017-09-02T07:59:34.472Z,60.00
2017-09-02T08:00:34.457Z,62.00
2017-09-02T08:01:34.521Z,63.00
2017-09-02T08:02:34.457Z,59.00
2017-09-02T08:03:34.524Z,65.00
2017-09-02T08:04:34.504Z,67.00
2017-09-02T08:05:34.489Z,69.00
2017-09-02T08:06:34.473Z,73.00
2017-09-02T08:07:34.567Z,74.00
2017-09-02T08:08:34.473Z,76.00
2017-09-02T08:09:34.441Z,75.00
2017-09-02T08:10:34.534Z,76.00
2017-09-02T08:11:34.527Z,79.00
2017-09-02T08:12:34.504Z,80.00
2017-09-02T08:13:34.509Z,75.00
2017-09-02T08:14:34.450Z,83.00
2017-09-02T08:15:34.477Z,83.00
2017-09-02T08:16:34.519Z,83.00
2017-09-02T08:17:34.483Z,84.00
2017-09-02T08:18:34.481Z,82.00
2017-09-02T08:19:34.533Z,81.00
2017-09-02T08:20:34.541Z,66.00
2017-09-02T08:21:34.469Z,58.00
2017-09-02T08:22:34.467Z,60.00
2017-09-02T08:23:34.469Z,60.00
2017-09-02T08:24:34.502Z,66.00
2017-09-02T08:25:34.469Z,76.00
2017-09-02T08:26:34.473Z,82.00
2017-09-02T08:27:34.471Z,84.00
2017-09-02T08:28:34.506Z,85.00
2017-09-02T08:29:34.471Z,85.00
2017-09-02T08:30:34.507Z,84.00
2017-09-02T08:31:34.456Z,83.00
2017-09-02T08:32:34.489Z,84.00
2017-09-02T08:33:34.505Z,84.00
2017-09-02T08:34:34.460Z,85.00
2017-09-02T08:35:34.544Z,84.00
2017-09-02T08:36:34.458Z,85.00
2017-09-02T08:37:34.514Z,85.00
2017-09-02T08:38:34.462Z,85.00
2017-09-02T08:39:34.545Z,86.00
2017-09-02T08:40:34.553Z,84.00
2017-09-02T08:41:34.514Z,86.00
2017-09-02T08:42:34.522Z,85.00
2017-09-02T08:43:34.496Z,83.00
2017-09-02T08:44:34.527Z,82.00
2017-09-02T08:45:34.458Z,82.00
2017-09-02T08:46:34.552Z,84.00
2017-09-02T08:47:34.489Z,85.00
2017-09-02T08:48:34.499Z,86.00
2017-09-02T08:49:34.470Z,88.00
2017-09-02T08:50:34.501Z,89.00
2017-09-02T08:51:34.489Z,90.00
2017-09-02T08:52:34.464Z,90.00
2017-09-02T08:53:34.466Z,91.00
2017-09-02T08:54:34.503Z,92.00
2017-09-02T08:55:34.552Z,93.00
2017-09-02T08:56:34.497Z,94.00
2017-09-02T08:57:34.565Z,93.00
2017-09-02T08:58:34.555Z,92.00
2017-09-02T08:59:34.508Z,93.00
2017-09-02T09:00:34.500Z,83.00
2017-09-02T09:01:34.464Z,96.00
2017-09-02T09:02:34.472Z,90.00
2017-09-02T09:03:34.467Z,94.00
2017-09-02T09:04:34.499Z,94.00
2017-09-02T09:05:34.484Z,94.00
2017-09-02T09:06:34.428Z,95.00
2017-09-02T09:07:34.469Z,94.00
2017-09-02T09:08:34.503Z,91.00
2017-09-02T09:09:34.489Z,94.00
2017-09-02T09:10:34.469Z,95.00
2017-09-02T09:11:34.541Z,97.00
2017-09-02T09:12:34.482Z,98.00
2017-09-02T09:13:34.450Z,97.00
2017-09-02T09:14:34.473Z,97.00
2017-09-02T09:15:34.475Z,97.00
2017-09-02T09:16:34.460Z,95.00
2017-09-02T09:17:34.499Z,97.00
2017-09-02T09:18:34.462Z,97.00
2017-09-02T09:19:34.505Z,97.00
2017-09-02T09:20:34.465Z,99.00
2017-09-02T09:21:34.547Z,99.00
2017-09-02T09:22:34.582Z,99.00
2017-09-02T09:23:34.518Z,99.00
2017-09-02T09:24:34.572Z,99.00
2017-09-02T09:25:34.574Z,99.00
2017-09-02T09:26:34.491Z,99.00
2017-09-02T09:27:34.554Z,99.00
2017-09-02T09:28:34.526Z,99.00
2017-09-02T09:29:34.522Z,99.00
2017-09-02T09:30:34.517Z,99.00
2017-09-02T09:31:34.550Z,99.00
2017-09-02T09:32:34.510Z,99.00
2017-09-02T09:33:34.464Z,99.00
2017-09-02T09:34:34.461Z,99.00
2017-09-02T09:35:34.466Z,99.00
2017-09-02T09:36:34.502Z,99.00
2017-09-02T09:37:34.507Z,99.00
2017-09-02T09:38:34.518Z,99.00
2017-09-02T09:39:34.513Z,99.00
2017-09-02T09:40:34.508Z,99.00
2017-09-02T09:41:34.469Z,99.00
2017-09-02T09:42:34.501Z,99.00
2017-09-02T09:43:34.492Z,99.00
2017-09-02T09:44:34.538Z,99.00
2017-09-02T09:45:34.489Z,99.00
2017-09-02T09:46:34.429Z,99.00
2017-09-02T09:47:34.461Z,99.00
2017-09-02T09:48:34.509Z,99.00
2017-09-02T09:49:34.503Z,99.00
2017-09-02T09:50:34.463Z,99.00
2017-09-02T09:51:34.591Z,99.00
2017-09-02T09:52:34.536Z,99.00
2017-09-02T09:53:34.568Z,99.00
2017-09-02T09:54:34.587Z,99.00
2017-09-02T09:55:34.573Z,99.00
2017-09-02T09:56:34.553Z,99.00
2017-09-02T09:57:34.565Z,99.00
2017-09-02T09:58:34.504Z,99.00
2017-09-02T09:59:34.501Z,99.00
2017-09-02T10:00:34.666Z,99.00
2017-09-02T10:01:34.541Z,99.00
2017-09-02T10:02:34.509Z,99.00
2017-09-02T10:03:34.507Z,99.00
2017-09-02T10:04:34.573Z,99.00
2017-09-02T10:05:34.510Z,99.00
2017-09-02T10:06:34.573Z,99.00
2017-09-02T10:07:34.580Z,99.00
2017-09-02T10:08:34.616Z,53.00
2017-09-02T10:09:34.526Z,49.00
2017-09-02T10:10:34.538Z,48.00
2017-09-02T10:11:34.600Z,74.00
2017-09-02T10:12:34.533Z,99.00
2017-09-02T10:13:34.518Z,99.00
2017-09-02T10:14:34.564Z,99.00
2017-09-02T10:15:34.562Z,99.00
2017-09-02T10:16:34.566Z,99.00
2017-09-02T10:17:34.640Z,99.00
2017-09-02T10:18:34.548Z,99.00
2017-09-02T10:19:34.623Z,99.00
2017-09-02T10:20:34.527Z,98.00
2017-09-02T10:21:34.511Z,44.00
2017-09-02T10:22:34.557Z,40.00
2017-09-02T10:23:34.518Z,39.00
2017-09-02T10:24:34.604Z,37.00
2017-09-02T10:25:34.608Z,34.00
2017-09-02T10:26:34.607Z,32.00
2017-09-02T10:27:34.610Z,32.00
2017-09-02T10:28:34.524Z,30.00
2017-09-02T10:29:34.555Z,29.00
2017-09-02T10:30:34.525Z,28.00
2017-09-02T10:31:34.537Z,27.00
2017-09-02T10:32:34.587Z,27.00
2017-09-02T10:33:34.553Z,27.00
2017-09-02T10:34:34.581Z,27.00
2017-09-02T10:35:34.541Z,28.00
2017-09-02T10:36:34.608Z,28.00
2017-09-02T10:37:34.550Z,28.00
2017-09-02T10:38:34.594Z,27.00
2017-09-02T10:39:34.529Z,27.00
2017-09-02T10:40:34.582Z,27.00
2017-09-02T10:41:34.562Z,27.00
2017-09-02T10:42:34.597Z,27.00
2017-09-02T10:43:34.547Z,27.00
2017-09-02T10:44:34.532Z,27.00
2017-09-02T10:45:34.564Z,27.00
2017-09-02T10:46:34.623Z,27.00
2017-09-02T10:47:34.548Z,27.00
2017-09-02T10:48:34.594Z,28.00
2017-09-02T10:49:34.565Z,29.00
2017-09-02T10:50:34.606Z,31.00
2017-09-02T10:51:34.588Z,33.00
2017-09-02T10:52:34.537Z,35.00
2017-09-02T10:53:34.557Z,41.00
2017-09-02T10:54:34.539Z,68.00
2017-09-02T10:55:34.568Z,44.00
2017-09-02T10:56:34.560Z,45.00
2017-09-02T10:57:34.595Z,99.00
2017-09-02T10:58:34.537Z,99.00
2017-09-02T10:59:34.599Z,99.00
2017-09-02T11:00:34.597Z,99.00
2017-09-02T11:01:34.593Z,99.00
2017-09-02T11:02:34.602Z,99.00
2017-09-02T11:03:34.573Z,99.00
2017-09-02T11:04:34.632Z,98.00
2017-09-02T11:05:34.571Z,48.00
2017-09-02T11:06:34.544Z,44.00
2017-09-02T11:07:34.544Z,42.00
2017-09-02T11:08:34.603Z,40.00
2017-09-02T11:09:34.615Z,39.00
2017-09-02T11:10:34.636Z,38.00
2017-09-02T11:11:34.549Z,39.00
2017-09-02T11:12:34.598Z,40.00
2017-09-02T11:13:34.620Z,39.00
2017-09-02T11:14:34.570Z,39.00
2017-09-02T11:15:34.619Z,41.00
2017-09-02T11:16:34.588Z,41.00
2017-09-02T11:17:34.551Z,41.00
2017-09-02T11:18:34.545Z,41.00
2017-09-02T11:19:34.603Z,41.00
2017-09-02T11:20:34.568Z,41.00
2017-09-02T11:21:34.582Z,42.00
2017-09-02T11:22:34.610Z,42.00
2017-09-02T11:23:34.581Z,42.00
2017-09-02T11:24:34.612Z,41.00
2017-09-02T11:25:34.571Z,41.00
2017-09-02T11:26:34.577Z,42.00
2017-09-02T11:27:34.569Z,43.00
2017-09-02T11:28:34.616Z,44.00
2017-09-02T11:29:34.582Z,46.00
2017-09-02T11:30:34.554Z,47.00
2017-09-02T11:31:34.573Z,48.00
2017-09-02T11:32:34.629Z,51.00
2017-09-02T11:33:34.619Z,57.00
2017-09-02T11:34:34.615Z,67.00
2017-09-02T11:35:34.598Z,71.00
2017-09-02T11:36:34.562Z,46.00
2017-09-02T11:37:34.566Z,41.00
2017-09-02T11:38:34.615Z,39.00
2017-09-02T11:39:34.584Z,39.00
2017-09-02T11:40:34.649Z,39.00
2017-09-02T11:41:34.650Z,40.00
2017-09-02T11:42:34.633Z,41.00
2017-09-02T11:43:34.620Z,43.00
2017-09-02T11:44:34.617Z,47.00
2017-09-02T11:45:34.631Z,57.00
2017-09-02T11:46:34.605Z,50.00
2017-09-02T11:47:34.567Z,50.00
2017-09-02T11:48:34.619Z,51.00
2017-09-02T11:49:34.598Z,51.00
2017-09-02T11:50:34.590Z,49.00
2017-09-02T11:51:34.632Z,50.00
2017-09-02T11:52:34.590Z,60.00
2017-09-02T11:53:34.642Z,63.00
2017-09-02T11:54:34.602Z,99.00
2017-09-02T11:55:34.662Z,99.00
2017-09-02T11:56:34.610Z,99.00
2017-09-02T11:57:34.635Z,99.00
2017-09-02T11:58:34.596Z,90.00
2017-09-02T11:59:34.577Z,99.00
2017-09-02T12:00:34.591Z,99.00
2017-09-02T12:01:34.621Z,99.00
2017-09-02T12:02:34.665Z,71.00
2017-09-02T12:03:34.666Z,48.00
2017-09-02T12:04:34.674Z,44.00
2017-09-02T12:05:34.668Z,43.00
2017-09-02T12:06:34.663Z,44.00
2017-09-02T12:07:34.667Z,45.00
2017-09-02T12:08:34.612Z,48.00
2017-09-02T12:09:34.652Z,63.00
2017-09-02T12:10:34.669Z,68.00
2017-09-02T12:11:34.584Z,66.00
2017-09-02T12:12:34.668Z,67.00
2017-09-02T12:13:34.581Z,69.00
2017-09-02T12:14:34.671Z,72.00
2017-09-02T12:15:34.577Z,76.00
2017-09-02T12:16:34.637Z,79.00
2017-09-02T12:17:34.582Z,79.00
2017-09-02T12:18:34.649Z,81.00
2017-09-02T12:19:34.589Z,80.00
2017-09-02T12:20:34.651Z,73.00
2017-09-02T12:21:34.590Z,66.00
2017-09-02T12:22:34.649Z,69.00
2017-09-02T12:23:34.588Z,81.00
2017-09-02T12:24:34.625Z,81.00
2017-09-02T12:25:34.621Z,81.00
2017-09-02T12:26:34.676Z,82.00
2017-09-02T12:27:34.651Z,86.00
2017-09-02T12:28:34.610Z,79.00
2017-09-02T12:29:34.652Z,95.00
2017-09-02T12:30:34.623Z,98.00
2017-09-02T12:31:34.649Z,99.00
2017-09-02T12:32:34.613Z,99.00
2017-09-02T12:33:34.683Z,99.00
2017-09-02T12:34:34.614Z,82.00
2017-09-02T12:35:34.687Z,75.00
2017-09-02T12:36:34.652Z,88.00
2017-09-02T12:37:34.624Z,98.00
2017-09-02T12:38:34.593Z,99.00
2017-09-02T12:39:34.601Z,99.00
2017-09-02T12:40:34.602Z,99.00
2017-09-02T12:41:34.671Z,99.00
2017-09-02T12:42:34.601Z,99.00
2017-09-02T12:43:34.676Z,99.00
2017-09-02T12:44:34.602Z,99.00
2017-09-02T12:45:34.693Z,99.00
2017-09-02T12:46:34.631Z,99.00
2017-09-02T12:47:34.635Z,99.00
2017-09-02T12:48:34.633Z,99.00
2017-09-02T12:49:34.665Z,99.00
2017-09-02T12:50:34.627Z,99.00
2017-09-02T12:51:34.605Z,99.00
2017-09-02T12:52:34.605Z,99.00
2017-09-02T12:53:34.668Z,99.00
2017-09-02T12:54:34.664Z,92.00
2017-09-02T12:55:34.608Z,67.00
2017-09-02T12:56:34.553Z,90.00
2017-09-02T12:57:34.502Z,99.00
2017-09-02T12:58:34.545Z,78.00
2017-09-02T12:59:34.497Z,88.00
2017-09-02T13:00:34.513Z,63.00
2017-09-02T13:01:34.555Z,54.00
2017-09-02T13:02:34.518Z,48.00
2017-09-02T13:03:34.493Z,47.00
2017-09-02T13:04:34.505Z,52.00
2017-09-02T13:05:34.494Z,70.00
2017-09-02T13:06:34.674Z,99.00
2017-09-02T13:07:34.636Z,99.00